Hauptseite
METAR-TAF:

METAR-TAF

Flughäfen :

Flughafen Ouagadougou

Ouagadougou, Burkina Faso

Breite: 12-21N, Länge: 001-31W, Höhe: 316 m

Beobachtung

Neuester Wetterbericht von vor 37 Minuten, um 15:00 UTC
Wind 7 kt aus Nord, variierte zwischen Nordwest und Nord/Nordost
Temperatur 36°C
Luftfeuchtigkeit 11%
Luftdruck 1009 hPa
Sichtweite: 8000 m

METAR: DFFD 201500Z 35007KT 310V030 8000 NSC 36/01 Q1009 NOSIG

Zeit: 15:37 (15:37 UTC)

Prognose

Neuester Wetterbericht von vor 4 Stunden und 37 Minuten, um 11:00 UTC
Gültige Prognose vom 20 um 12 UTC bis 21 um 18 UTC
Wind 10 kt aus Ost
Sichtweite: 8000 m
Zeitweise
vom 21 um 06 UTC bis 21 um 10 UTC
Sichtweite: 4000 m
trockener Dunst

TAF: DFFD 201100Z 2012/2118 08010KT 8000 NSC TEMPO 2106/2110 4000 HZ

Wetterbeobachtungen und Prognosen von mehr als 4000 Flughäfen (METAR und TAF Bericht).

Die verfügbaren Stationen werden durch gelbe und rote Markierungen auf der Karte dargestellt.

Führen Sie die Maus auf sie, um den Namen der Station zu sehen.

Darauf klicken, um die Beobachtung von Wetterbeobachtungen und Prognosen zu sehen.

Um die Karte zu ändern : klicken Sie auf den grünen Tasten mit einem schwarzen Kreuz Zum Vergrößern, auf den grünen Button mit einem Gedankenstrich zu verkleinern, oder auf die grünen Pfeile für benachbarte Karten.


METAR-TAF: